createdAt,value
2023-05-02T00:00:11.223Z,21.00
2023-05-02T00:02:39.430Z,21.20
2023-05-02T00:05:08.738Z,21.10
2023-05-02T00:07:37.373Z,21.20
2023-05-02T00:10:06.569Z,21.20
2023-05-02T00:12:35.921Z,20.90
2023-05-02T00:15:04.375Z,21.20
2023-05-02T00:17:32.755Z,21.20
2023-05-02T00:20:01.260Z,21.00
2023-05-02T00:22:29.760Z,20.90
2023-05-02T00:24:58.533Z,20.80
2023-05-02T00:27:26.790Z,20.90
2023-05-02T00:29:56.212Z,21.10
2023-05-02T00:32:24.268Z,21.00
2023-05-02T00:34:52.246Z,21.10
2023-05-02T00:37:21.095Z,21.20
2023-05-02T00:39:49.016Z,21.00
2023-05-02T00:42:16.987Z,21.00
2023-05-02T00:44:45.447Z,20.60
2023-05-02T00:47:16.011Z,21.00
2023-05-02T00:49:44.102Z,20.70
2023-05-02T00:52:12.059Z,20.90
2023-05-02T00:54:40.477Z,20.90
2023-05-02T00:57:08.636Z,20.90
2023-05-02T00:59:37.623Z,20.90
2023-05-02T01:02:25.905Z,20.90
2023-05-02T01:05:06.534Z,21.00
2023-05-02T01:07:59.659Z,20.50
2023-05-02T01:10:39.777Z,20.80
2023-05-02T01:13:13.250Z,21.10
2023-05-02T01:15:42.936Z,20.80
2023-05-02T01:18:14.517Z,21.20
2023-05-02T01:20:47.760Z,21.00
2023-05-02T01:23:24.672Z,21.10
2023-05-02T01:26:11.343Z,20.90
2023-05-02T01:28:56.576Z,21.00
2023-05-02T01:31:26.880Z,20.80
2023-05-02T01:33:56.821Z,20.80
2023-05-02T01:36:30.195Z,20.50
2023-05-02T01:39:00.297Z,21.10
2023-05-02T01:41:31.461Z,20.90
2023-05-02T01:44:03.472Z,20.50
2023-05-02T01:46:34.183Z,20.80
2023-05-02T01:49:05.058Z,20.60
2023-05-02T01:51:36.196Z,21.00
2023-05-02T01:54:06.792Z,20.70
2023-05-02T01:56:39.152Z,20.90
2023-05-02T01:59:13.387Z,20.90
2023-05-02T02:01:43.613Z,20.80
2023-05-02T02:04:14.531Z,20.50
2023-05-02T02:06:47.245Z,20.80
2023-05-02T02:09:15.456Z,20.90
2023-05-02T02:11:50.265Z,20.70
2023-05-02T02:14:23.548Z,20.90
2023-05-02T02:16:55.786Z,20.90
2023-05-02T02:19:24.493Z,20.90
2023-05-02T02:21:54.101Z,21.00
2023-05-02T02:24:25.024Z,20.70
2023-05-02T02:26:53.160Z,20.90
2023-05-02T02:29:22.519Z,20.70
2023-05-02T02:31:50.690Z,20.50
2023-05-02T02:34:18.746Z,20.90
2023-05-02T02:36:54.568Z,20.50
2023-05-02T02:39:41.426Z,20.90
2023-05-02T02:42:16.706Z,20.70
2023-05-02T02:44:56.462Z,20.80
2023-05-02T02:47:30.762Z,20.70
2023-05-02T02:50:16.414Z,20.80
2023-05-02T02:52:54.987Z,20.60
2023-05-02T02:55:35.325Z,20.80
2023-05-02T02:58:15.141Z,21.00
2023-05-02T03:00:45.887Z,20.80
2023-05-02T03:03:16.220Z,20.80
2023-05-02T03:05:44.991Z,20.70
2023-05-02T03:08:13.704Z,20.50
2023-05-02T03:10:41.879Z,20.80
2023-05-02T03:13:09.881Z,20.70
2023-05-02T03:16:36.696Z,21.00
2023-05-02T03:19:05.876Z,21.10
2023-05-02T03:21:34.446Z,20.70
2023-05-02T03:24:03.999Z,20.80
2023-05-02T03:26:32.294Z,20.80
2023-05-02T03:29:00.383Z,20.60
2023-05-02T03:31:29.838Z,21.10
2023-05-02T03:33:57.900Z,20.70
2023-05-02T03:36:25.890Z,21.00
2023-05-02T03:38:53.873Z,20.60
2023-05-02T03:41:21.849Z,20.40
2023-05-02T03:43:49.858Z,20.60
2023-05-02T03:46:18.062Z,20.70
2023-05-02T03:48:47.426Z,20.50
2023-05-02T03:51:15.498Z,20.90
2023-05-02T03:53:43.753Z,20.80
2023-05-02T03:56:11.835Z,20.70
2023-05-02T03:58:39.885Z,20.40
2023-05-02T04:01:15.955Z,21.10
2023-05-02T04:03:44.132Z,20.80
2023-05-02T04:06:14.051Z,20.90
2023-05-02T04:08:42.418Z,20.90
2023-05-02T04:11:10.543Z,21.00
2023-05-02T04:13:38.550Z,20.80
2023-05-02T04:16:07.146Z,20.60
2023-05-02T04:18:35.388Z,20.90
2023-05-02T04:21:03.437Z,21.00
2023-05-02T04:23:33.906Z,21.00
2023-05-02T04:26:01.887Z,20.50
2023-05-02T04:28:29.887Z,20.50
2023-05-02T04:30:58.501Z,20.70
2023-05-02T04:33:26.490Z,20.70
2023-05-02T04:35:54.542Z,21.00
2023-05-02T04:38:22.620Z,20.30
2023-05-02T04:40:53.183Z,20.60
2023-05-02T04:43:23.208Z,20.50
2023-05-02T04:45:52.819Z,20.50
2023-05-02T04:48:21.576Z,20.70
2023-05-02T04:50:50.518Z,20.60
2023-05-02T04:53:18.556Z,20.40
2023-05-02T04:55:46.555Z,20.70
2023-05-02T04:58:16.410Z,21.00
2023-05-02T05:00:44.500Z,20.40
2023-05-02T05:03:12.574Z,20.70
2023-05-02T05:05:40.693Z,20.50
2023-05-02T05:08:09.544Z,20.50
2023-05-02T05:10:37.554Z,20.40
2023-05-02T05:13:05.844Z,20.70
2023-05-02T05:15:35.179Z,20.80
2023-05-02T05:18:03.329Z,20.90
2023-05-02T05:20:31.401Z,21.10
2023-05-02T05:22:59.432Z,20.80
2023-05-02T05:25:28.036Z,20.50
2023-05-02T05:27:57.025Z,20.80
2023-05-02T05:30:25.086Z,20.70
2023-05-02T05:32:54.645Z,21.10
2023-05-02T05:35:22.810Z,20.50
2023-05-02T05:37:51.142Z,20.80
2023-05-02T05:40:19.670Z,20.60
2023-05-02T05:42:47.777Z,20.80
2023-05-02T05:45:17.036Z,20.80
2023-05-02T05:47:45.170Z,20.80
2023-05-02T05:50:14.556Z,20.40
2023-05-02T05:52:42.719Z,20.50
2023-05-02T05:55:11.819Z,21.00
2023-05-02T05:57:39.805Z,20.80
2023-05-02T06:00:10.711Z,20.80
2023-05-02T06:02:38.859Z,20.80
2023-05-02T06:05:07.924Z,20.90
2023-05-02T06:07:37.667Z,20.60
2023-05-02T06:10:06.891Z,20.90
2023-05-02T06:12:35.028Z,20.50
2023-05-02T06:15:02.963Z,20.70
2023-05-02T06:17:31.306Z,20.60
2023-05-02T06:19:59.547Z,20.80
2023-05-02T06:22:27.653Z,20.90
2023-05-02T06:24:57.099Z,20.70
2023-05-02T06:27:25.151Z,20.80
2023-05-02T06:29:53.394Z,21.00
2023-05-02T06:32:21.589Z,20.90
2023-05-02T06:34:49.637Z,21.00
2023-05-02T06:37:17.631Z,20.90
2023-05-02T06:39:45.607Z,20.80
2023-05-02T06:42:14.938Z,21.00
2023-05-02T06:44:43.050Z,20.90
2023-05-02T06:47:11.203Z,21.10
2023-05-02T06:49:39.254Z,21.00
2023-05-02T06:52:07.236Z,20.80
2023-05-02T06:54:35.482Z,21.10
2023-05-02T06:57:03.726Z,20.90
2023-05-02T06:59:33.152Z,20.80
2023-05-02T07:02:03.620Z,21.30
2023-05-02T07:04:33.167Z,21.20
2023-05-02T07:07:01.285Z,20.90
2023-05-02T07:09:29.331Z,21.10
2023-05-02T07:11:57.400Z,21.00
2023-05-02T07:14:25.477Z,20.90
2023-05-02T07:16:54.965Z,20.90
2023-05-02T07:19:23.081Z,20.90
2023-05-02T07:21:51.262Z,21.10
2023-05-02T07:24:19.155Z,21.00
2023-05-02T07:26:47.209Z,21.10
2023-05-02T07:29:15.121Z,20.90
2023-05-02T07:31:43.500Z,20.90
2023-05-02T07:34:12.954Z,21.00
2023-05-02T07:36:41.066Z,21.00
2023-05-02T07:39:09.049Z,20.80
2023-05-02T07:41:37.297Z,21.00
2023-05-02T07:44:05.729Z,21.20
2023-05-02T07:46:33.776Z,20.80
2023-05-02T07:49:01.850Z,20.80
2023-05-02T07:51:31.176Z,21.00
2023-05-02T07:53:59.508Z,21.00
2023-05-02T07:56:27.589Z,21.20
2023-05-02T07:58:55.545Z,20.90
2023-05-02T08:01:23.556Z,21.00
2023-05-02T08:03:51.788Z,20.90
2023-05-02T08:06:20.149Z,21.00
2023-05-02T08:08:49.731Z,21.10
2023-05-02T08:11:17.943Z,21.10
2023-05-02T08:13:46.332Z,21.00
2023-05-02T08:16:14.708Z,21.20
2023-05-02T08:18:42.961Z,21.20
2023-05-02T08:21:11.994Z,21.30
2023-05-02T08:23:42.281Z,21.60
2023-05-02T08:26:11.758Z,21.30
2023-05-02T08:28:39.772Z,21.60
2023-05-02T08:31:08.060Z,21.50
2023-05-02T08:33:36.168Z,21.30
2023-05-02T08:36:12.927Z,21.50
2023-05-02T08:38:41.888Z,21.50
2023-05-02T08:41:17.052Z,21.80
2023-05-02T08:43:46.173Z,21.60
2023-05-02T08:46:16.612Z,21.60
2023-05-02T08:48:47.991Z,21.80
2023-05-02T08:53:48.030Z,21.90
2023-05-02T08:56:17.460Z,22.00
2023-05-02T08:58:45.639Z,21.70
2023-05-02T09:01:16.727Z,21.90
2023-05-02T09:03:46.786Z,22.00
2023-05-02T09:06:17.288Z,21.70
2023-05-02T09:08:48.682Z,21.70
2023-05-02T09:11:18.439Z,22.00
2023-05-02T09:13:47.877Z,21.50
2023-05-02T09:16:18.194Z,21.60
2023-05-02T09:18:49.185Z,21.90
2023-05-02T09:21:20.680Z,21.90
2023-05-02T09:23:52.074Z,22.00
2023-05-02T09:26:23.339Z,22.10
2023-05-02T09:28:53.658Z,22.10
2023-05-02T09:33:55.400Z,22.00
2023-05-02T09:36:23.792Z,22.10
2023-05-02T09:38:52.003Z,22.20
2023-05-02T09:41:22.123Z,22.00
2023-05-02T09:43:58.140Z,22.30
2023-05-02T09:46:26.302Z,22.00
2023-05-02T09:48:56.018Z,22.20
2023-05-02T09:51:25.820Z,22.50
2023-05-02T09:53:54.520Z,22.40
2023-05-02T09:56:24.807Z,22.30
2023-05-02T09:59:14.508Z,22.30
2023-05-02T10:01:43.374Z,22.30
2023-05-02T10:04:16.388Z,22.30
2023-05-02T10:06:45.471Z,22.30
2023-05-02T10:09:20.594Z,22.20
2023-05-02T10:11:54.364Z,22.00
2023-05-02T10:14:24.904Z,22.20
2023-05-02T10:17:02.010Z,22.30
2023-05-02T10:19:35.174Z,22.40
2023-05-02T10:22:04.086Z,22.30
2023-05-02T10:24:34.322Z,22.70
2023-05-02T10:27:06.501Z,22.70
2023-05-02T10:29:36.088Z,23.00
2023-05-02T10:32:06.055Z,22.70
2023-05-02T10:34:34.786Z,23.00
2023-05-02T10:37:02.948Z,23.10
2023-05-02T10:39:33.070Z,23.10
2023-05-02T10:42:04.470Z,22.60
2023-05-02T10:44:36.231Z,22.80
2023-05-02T10:47:20.088Z,22.80
2023-05-02T10:49:53.117Z,22.60
2023-05-02T10:52:29.270Z,22.40
2023-05-02T10:55:18.078Z,22.70
2023-05-02T10:58:24.270Z,22.70
2023-05-02T11:00:52.434Z,22.50
2023-05-02T11:03:55.933Z,22.60
2023-05-02T11:06:24.218Z,22.60
2023-05-02T11:08:52.988Z,22.90
2023-05-02T11:11:41.306Z,22.50
2023-05-02T11:14:12.240Z,23.10
2023-05-02T11:17:10.012Z,23.00
2023-05-02T11:20:29.004Z,22.50
2023-05-02T11:23:22.724Z,23.00
2023-05-02T11:25:52.006Z,23.00
2023-05-02T11:28:48.060Z,22.60
2023-05-02T11:32:08.631Z,22.90
2023-05-02T11:34:44.129Z,22.70
2023-05-02T11:37:14.455Z,23.10
2023-05-02T11:39:42.810Z,22.80
2023-05-02T11:42:10.826Z,23.00
2023-05-02T11:44:57.508Z,22.80
2023-05-02T11:47:29.616Z,23.00
2023-05-02T11:50:00.243Z,23.30
2023-05-02T11:52:28.457Z,23.10
2023-05-02T11:54:56.902Z,23.20
2023-05-02T11:57:25.486Z,22.80
2023-05-02T11:59:54.456Z,23.40
2023-05-02T12:02:39.030Z,23.00
2023-05-02T12:05:09.775Z,23.20
2023-05-02T12:07:38.878Z,23.30
2023-05-02T12:10:08.482Z,23.50
2023-05-02T12:12:36.649Z,23.50
2023-05-02T12:15:06.851Z,23.10
2023-05-02T12:17:40.108Z,23.70
2023-05-02T12:20:10.566Z,23.70
2023-05-02T12:22:39.025Z,23.40
2023-05-02T12:25:08.846Z,23.60
2023-05-02T12:27:37.839Z,23.70
2023-05-02T12:30:07.632Z,23.60
2023-05-02T12:32:37.448Z,23.60
2023-05-02T12:35:22.684Z,23.80
2023-05-02T12:37:50.986Z,23.50
2023-05-02T12:40:18.970Z,23.70
2023-05-02T12:43:01.138Z,23.70
2023-05-02T12:45:33.551Z,23.70
2023-05-02T12:48:02.251Z,23.80
2023-05-02T12:50:40.535Z,23.90
2023-05-02T12:53:08.508Z,23.80
2023-05-02T12:55:37.301Z,23.80
2023-05-02T12:58:07.716Z,23.90
2023-05-02T13:00:39.645Z,23.80
2023-05-02T13:03:08.415Z,23.90
2023-05-02T13:05:36.785Z,23.50
2023-05-02T13:08:07.038Z,24.00
2023-05-02T13:10:35.244Z,23.50
2023-05-02T13:13:03.468Z,23.80
2023-05-02T13:15:31.668Z,24.00
2023-05-02T13:17:59.831Z,23.50
2023-05-02T13:20:27.951Z,23.60
2023-05-02T13:22:56.133Z,23.80
2023-05-02T13:25:26.237Z,23.50
2023-05-02T13:27:54.271Z,24.00
2023-05-02T13:30:22.388Z,24.00
2023-05-02T13:32:50.459Z,23.80
2023-05-02T13:35:18.556Z,24.00
2023-05-02T13:37:46.548Z,24.10
2023-05-02T13:40:14.685Z,23.70
2023-05-02T13:42:44.035Z,24.10
2023-05-02T13:45:12.597Z,24.20
2023-05-02T13:47:41.541Z,24.10
2023-05-02T13:50:10.444Z,24.00
2023-05-02T13:52:38.416Z,24.20
2023-05-02T13:55:08.033Z,24.20
2023-05-02T13:57:36.012Z,24.30
2023-05-02T14:00:09.468Z,24.20
2023-05-02T14:02:37.825Z,24.10
2023-05-02T14:05:07.053Z,24.10
2023-05-02T14:07:35.079Z,24.20
2023-05-02T14:10:03.337Z,24.20
2023-05-02T14:12:31.863Z,24.00
2023-05-02T14:14:59.872Z,24.10
2023-05-02T14:17:29.289Z,23.70
2023-05-02T14:19:57.385Z,23.90
2023-05-02T14:22:25.425Z,24.10
2023-05-02T14:24:53.432Z,23.70
2023-05-02T14:27:21.622Z,23.70
2023-05-02T14:29:50.124Z,23.80
2023-05-02T14:32:18.277Z,23.80
2023-05-02T14:34:47.559Z,23.70
2023-05-02T14:37:15.577Z,23.70
2023-05-02T14:39:46.560Z,23.50
2023-05-02T14:42:15.489Z,23.80
2023-05-02T14:44:43.434Z,23.80
2023-05-02T14:47:11.654Z,23.50
2023-05-02T14:49:39.672Z,23.80
2023-05-02T14:52:09.068Z,23.90
2023-05-02T14:54:37.209Z,23.40
2023-05-02T14:57:05.409Z,23.50
2023-05-02T14:59:33.389Z,23.70
2023-05-02T15:02:01.331Z,23.70
2023-05-02T15:04:29.575Z,23.80
2023-05-02T15:06:58.416Z,23.60
2023-05-02T15:09:29.023Z,23.80
2023-05-02T15:11:57.535Z,23.70
2023-05-02T15:14:25.644Z,23.70
2023-05-02T15:16:53.972Z,23.70
2023-05-02T15:19:23.179Z,24.00
2023-05-02T15:21:53.100Z,23.60
2023-05-02T15:24:21.193Z,23.30
2023-05-02T15:26:50.577Z,23.60
2023-05-02T15:29:18.547Z,23.70
2023-05-02T15:31:46.583Z,23.30
2023-05-02T15:34:15.057Z,23.60
2023-05-02T15:36:43.220Z,23.60
2023-05-02T15:39:11.264Z,23.50
2023-05-02T15:41:39.195Z,23.20
2023-05-02T15:44:08.546Z,23.50
2023-05-02T15:46:36.517Z,23.60
2023-05-02T15:49:04.627Z,23.50
2023-05-02T15:51:32.625Z,23.10
2023-05-02T15:54:01.470Z,23.30
2023-05-02T15:56:30.093Z,23.50
2023-05-02T15:58:58.581Z,23.50
2023-05-02T16:01:27.940Z,23.30
2023-05-02T16:03:56.219Z,23.40
2023-05-02T16:06:24.366Z,23.30
2023-05-02T16:08:52.354Z,23.20
2023-05-02T16:11:20.904Z,23.60
2023-05-02T16:13:48.846Z,23.40
2023-05-02T16:16:16.887Z,23.50
2023-05-02T16:18:46.238Z,23.10
2023-05-02T16:21:14.438Z,23.40
2023-05-02T16:23:42.437Z,23.30
2023-05-02T16:26:10.478Z,23.50
2023-05-02T16:28:38.550Z,23.10
2023-05-02T16:31:07.896Z,23.40
2023-05-02T16:33:35.935Z,23.30
2023-05-02T16:36:06.278Z,23.50
2023-05-02T16:38:36.216Z,23.30
2023-05-02T16:41:06.746Z,23.30
2023-05-02T16:43:34.763Z,23.00
2023-05-02T16:46:03.617Z,23.30
2023-05-02T16:48:31.834Z,23.00
2023-05-02T16:51:01.808Z,23.00
2023-05-02T16:53:33.291Z,23.00
2023-05-02T16:56:01.564Z,23.40
2023-05-02T16:58:30.013Z,23.10
2023-05-02T17:00:59.828Z,23.20
2023-05-02T17:03:28.667Z,23.00
2023-05-02T17:06:00.776Z,23.00
2023-05-02T17:08:29.127Z,23.20
2023-05-02T17:10:58.508Z,23.40
2023-05-02T17:13:26.561Z,23.00
2023-05-02T17:15:54.590Z,23.40
2023-05-02T17:18:23.812Z,23.20
2023-05-02T17:20:51.982Z,23.10
2023-05-02T17:23:20.050Z,23.20
2023-05-02T17:25:48.502Z,23.40
2023-05-02T17:28:18.029Z,23.10
2023-05-02T17:30:46.200Z,23.30
2023-05-02T17:33:14.263Z,23.20
2023-05-02T17:35:42.368Z,23.30
2023-05-02T17:38:10.353Z,23.40
2023-05-02T17:40:38.459Z,23.40
2023-05-02T17:43:06.464Z,22.80
2023-05-02T17:45:36.228Z,23.40
2023-05-02T17:48:04.539Z,23.10
2023-05-02T17:50:33.862Z,23.10
2023-05-02T17:53:02.004Z,23.20
2023-05-02T17:55:30.109Z,22.90
2023-05-02T17:57:59.180Z,22.70
2023-05-02T18:00:27.338Z,23.10
2023-05-02T18:02:56.905Z,23.10
2023-05-02T18:05:26.157Z,22.60
2023-05-02T18:07:55.571Z,23.00
2023-05-02T18:10:23.758Z,23.10
2023-05-02T18:12:52.407Z,23.10
2023-05-02T18:15:21.040Z,22.60
2023-05-02T18:17:49.176Z,23.10
2023-05-02T18:20:18.840Z,23.20
2023-05-02T18:22:46.879Z,22.60
2023-05-02T18:25:15.114Z,23.10
2023-05-02T18:27:43.482Z,22.70
2023-05-02T18:30:12.582Z,22.70
2023-05-02T18:32:40.740Z,22.90
2023-05-02T18:35:11.273Z,23.00
2023-05-02T18:37:41.022Z,22.80
2023-05-02T18:40:10.630Z,22.60
2023-05-02T18:42:38.611Z,22.50
2023-05-02T18:45:08.192Z,22.40
2023-05-02T18:47:36.791Z,22.50
2023-05-02T18:50:06.029Z,22.40
2023-05-02T18:52:34.205Z,22.50
2023-05-02T18:55:04.966Z,22.30
2023-05-02T18:57:34.276Z,22.30
2023-05-02T19:00:05.045Z,22.20
2023-05-02T19:02:33.565Z,22.20
2023-05-02T19:05:01.919Z,22.50
2023-05-02T19:07:30.097Z,22.40
2023-05-02T19:09:58.198Z,21.90
2023-05-02T19:12:27.475Z,22.10
2023-05-02T19:14:55.449Z,22.30
2023-05-02T19:17:25.549Z,22.20
2023-05-02T19:19:54.372Z,21.60
2023-05-02T19:22:23.349Z,20.80
2023-05-02T19:24:51.727Z,20.70
2023-05-02T19:27:19.706Z,20.30
2023-05-02T19:29:49.043Z,20.30
2023-05-02T19:32:17.021Z,19.80
2023-05-02T19:34:45.439Z,19.50
2023-05-02T19:37:13.475Z,19.80
2023-05-02T19:39:41.521Z,19.30
2023-05-02T19:42:09.528Z,19.20
2023-05-02T19:44:37.615Z,19.40
2023-05-02T19:47:07.460Z,19.10
2023-05-02T19:49:35.557Z,19.20
2023-05-02T19:52:03.644Z,19.10
2023-05-02T19:54:33.172Z,19.20
2023-05-02T19:57:02.735Z,19.00
2023-05-02T19:59:31.005Z,20.10
2023-05-02T20:01:59.427Z,20.70
2023-05-02T20:04:30.331Z,20.60
2023-05-02T20:06:58.578Z,20.80
2023-05-02T20:09:26.745Z,21.00
2023-05-02T20:11:54.981Z,21.20
2023-05-02T20:14:23.058Z,21.20
2023-05-02T20:16:51.602Z,20.90
2023-05-02T20:19:21.862Z,21.30
2023-05-02T20:21:52.203Z,21.30
2023-05-02T20:24:20.992Z,21.20
2023-05-02T20:26:49.262Z,21.50
2023-05-02T20:29:17.433Z,21.50
2023-05-02T20:31:45.712Z,21.30
2023-05-02T20:34:13.786Z,21.60
2023-05-02T20:36:42.019Z,21.50
2023-05-02T20:39:12.226Z,21.50
2023-05-02T20:41:40.233Z,21.40
2023-05-02T20:44:08.398Z,21.30
2023-05-02T20:46:36.764Z,21.30
2023-05-02T20:49:05.611Z,21.50
2023-05-02T20:51:33.867Z,20.10
2023-05-02T20:54:01.962Z,20.00
2023-05-02T20:56:31.365Z,20.50
2023-05-02T20:58:59.489Z,20.60
2023-05-02T21:01:27.731Z,21.00
2023-05-02T21:03:56.963Z,21.30
2023-05-02T21:06:28.702Z,20.80
2023-05-02T21:08:58.191Z,21.30
2023-05-02T21:11:26.388Z,21.10
2023-05-02T21:13:55.818Z,21.20
2023-05-02T21:16:24.037Z,21.00
2023-05-02T21:18:53.121Z,21.20
2023-05-02T21:21:21.550Z,20.60
2023-05-02T21:23:49.669Z,21.00
2023-05-02T21:26:17.986Z,20.80
2023-05-02T21:28:46.451Z,20.90
2023-05-02T21:31:15.870Z,21.10
2023-05-02T21:33:44.230Z,20.90
2023-05-02T21:36:12.475Z,21.10
2023-05-02T21:38:40.721Z,20.60
2023-05-02T21:41:08.991Z,21.10
2023-05-02T21:43:39.790Z,21.10
2023-05-02T21:46:08.048Z,20.90
2023-05-02T21:48:37.473Z,20.80
2023-05-02T21:51:08.475Z,21.00
2023-05-02T21:53:37.202Z,20.60
2023-05-02T21:56:07.045Z,21.10
2023-05-02T21:58:41.620Z,20.60
2023-05-02T22:01:10.585Z,21.00
2023-05-02T22:03:40.296Z,20.40
2023-05-02T22:06:09.472Z,21.00
2023-05-02T22:08:37.759Z,20.80
2023-05-02T22:11:12.535Z,20.40
2023-05-02T22:13:41.937Z,20.50
2023-05-02T22:16:12.654Z,21.10
2023-05-02T22:18:44.770Z,20.80
2023-05-02T22:21:13.265Z,20.70
2023-05-02T22:23:43.817Z,20.90
2023-05-02T22:26:13.116Z,21.10
2023-05-02T22:28:41.290Z,20.80
2023-05-02T22:31:09.455Z,20.50
2023-05-02T22:33:37.650Z,20.90
2023-05-02T22:36:08.664Z,21.10
2023-05-02T22:38:42.884Z,21.00
2023-05-02T22:41:11.138Z,20.50
2023-05-02T22:43:39.474Z,20.90
2023-05-02T22:46:07.933Z,20.70
2023-05-02T22:48:36.547Z,20.90
2023-05-02T22:51:06.991Z,20.70
2023-05-02T22:53:35.515Z,20.80
2023-05-02T22:56:07.297Z,21.00
2023-05-02T22:58:35.501Z,20.70
2023-05-02T23:01:03.923Z,20.80
2023-05-02T23:03:38.579Z,20.50
2023-05-02T23:06:08.890Z,20.40
2023-05-02T23:08:37.291Z,20.40
2023-05-02T23:11:08.521Z,20.80
2023-05-02T23:13:37.115Z,20.70
2023-05-02T23:16:14.465Z,20.40
2023-05-02T23:18:42.955Z,20.70
2023-05-02T23:21:37.648Z,20.50
2023-05-02T23:24:06.959Z,20.40
2023-05-02T23:26:35.331Z,20.80
2023-05-02T23:29:03.639Z,20.40
2023-05-02T23:31:31.946Z,20.70
2023-05-02T23:34:01.662Z,20.60
2023-05-02T23:36:33.299Z,20.40
2023-05-02T23:39:02.656Z,20.70
2023-05-02T23:41:31.344Z,20.40
2023-05-02T23:43:59.539Z,20.50
2023-05-02T23:46:28.141Z,20.70
2023-05-02T23:48:56.527Z,20.50
2023-05-02T23:51:24.720Z,20.90
2023-05-02T23:53:54.458Z,20.40
2023-05-02T23:56:22.628Z,20.40
2023-05-02T23:58:50.952Z,20.50
